sensor_id;sensor_type;location;lat;lon;timestamp;temperature;humidity
54518;DHT22;40423;53.176;6.002;2023-06-24T00:02:06;17.50;99.90
54518;DHT22;40423;53.176;6.002;2023-06-24T00:04:32;17.50;99.90
54518;DHT22;40423;53.176;6.002;2023-06-24T00:07:00;17.40;99.90
54518;DHT22;40423;53.176;6.002;2023-06-24T00:09:26;17.40;99.90
54518;DHT22;40423;53.176;6.002;2023-06-24T00:11:54;17.30;99.90
54518;DHT22;40423;53.176;6.002;2023-06-24T00:14:21;17.30;99.90
54518;DHT22;40423;53.176;6.002;2023-06-24T00:16:47;17.20;99.90
54518;DHT22;40423;53.176;6.002;2023-06-24T00:19:24;17.20;99.90
54518;DHT22;40423;53.176;6.002;2023-06-24T00:21:51;17.20;99.90
54518;DHT22;40423;53.176;6.002;2023-06-24T00:24:18;17.10;99.90
54518;DHT22;40423;53.176;6.002;2023-06-24T00:26:46;17.10;99.90
54518;DHT22;40423;53.176;6.002;2023-06-24T00:29:12;17.10;99.90
54518;DHT22;40423;53.176;6.002;2023-06-24T00:31:38;17.10;99.90
54518;DHT22;40423;53.176;6.002;2023-06-24T00:34:04;17.10;99.90
54518;DHT22;40423;53.176;6.002;2023-06-24T00:36:30;17.00;99.90
54518;DHT22;40423;53.176;6.002;2023-06-24T00:38:58;17.00;99.90
54518;DHT22;40423;53.176;6.002;2023-06-24T00:41:29;17.00;99.90
54518;DHT22;40423;53.176;6.002;2023-06-24T00:43:56;16.90;99.90
54518;DHT22;40423;53.176;6.002;2023-06-24T00:46:26;16.90;99.90
54518;DHT22;40423;53.176;6.002;2023-06-24T00:48:54;16.80;99.90
54518;DHT22;40423;53.176;6.002;2023-06-24T00:51:20;16.80;99.90
54518;DHT22;40423;53.176;6.002;2023-06-24T00:53:47;16.80;99.90
54518;DHT22;40423;53.176;6.002;2023-06-24T00:56:14;16.80;99.90
54518;DHT22;40423;53.176;6.002;2023-06-24T00:58:42;16.90;99.90
54518;DHT22;40423;53.176;6.002;2023-06-24T01:01:09;16.90;99.90
54518;DHT22;40423;53.176;6.002;2023-06-24T01:03:36;16.90;99.90
54518;DHT22;40423;53.176;6.002;2023-06-24T01:06:03;17.00;99.90
54518;DHT22;40423;53.176;6.002;2023-06-24T01:08:29;17.10;99.90
54518;DHT22;40423;53.176;6.002;2023-06-24T01:10:54;17.00;99.90
54518;DHT22;40423;53.176;6.002;2023-06-24T01:13:20;17.00;99.90
54518;DHT22;40423;53.176;6.002;2023-06-24T01:15:46;17.00;99.90
54518;DHT22;40423;53.176;6.002;2023-06-24T01:18:52;16.90;99.90
54518;DHT22;40423;53.176;6.002;2023-06-24T01:27:04;17.00;99.90
54518;DHT22;40423;53.176;6.002;2023-06-24T01:32:14;17.00;99.90
54518;DHT22;40423;53.176;6.002;2023-06-24T01:35:39;17.00;99.90
54518;DHT22;40423;53.176;6.002;2023-06-24T01:37:48;17.00;99.90
54518;DHT22;40423;53.176;6.002;2023-06-24T01:42:52;16.90;99.90
54518;DHT22;40423;53.176;6.002;2023-06-24T01:45:26;16.80;99.90
54518;DHT22;40423;53.176;6.002;2023-06-24T01:48:01;16.80;99.90
54518;DHT22;40423;53.176;6.002;2023-06-24T01:50:31;16.80;99.90
54518;DHT22;40423;53.176;6.002;2023-06-24T01:52:57;16.80;99.90
54518;DHT22;40423;53.176;6.002;2023-06-24T01:55:24;16.80;99.90
54518;DHT22;40423;53.176;6.002;2023-06-24T01:57:52;16.80;99.90
54518;DHT22;40423;53.176;6.002;2023-06-24T02:00:21;16.70;99.90
54518;DHT22;40423;53.176;6.002;2023-06-24T02:02:50;16.70;99.90
54518;DHT22;40423;53.176;6.002;2023-06-24T02:05:17;16.60;99.90
54518;DHT22;40423;53.176;6.002;2023-06-24T02:07:45;16.60;99.90
54518;DHT22;40423;53.176;6.002;2023-06-24T02:10:13;16.60;99.90
54518;DHT22;40423;53.176;6.002;2023-06-24T02:12:40;16.60;99.90
54518;DHT22;40423;53.176;6.002;2023-06-24T02:15:07;16.60;99.90
54518;DHT22;40423;53.176;6.002;2023-06-24T02:17:33;16.60;99.90
54518;DHT22;40423;53.176;6.002;2023-06-24T02:20:00;16.50;99.90
54518;DHT22;40423;53.176;6.002;2023-06-24T02:22:27;16.50;99.90
54518;DHT22;40423;53.176;6.002;2023-06-24T02:24:54;16.50;99.90
54518;DHT22;40423;53.176;6.002;2023-06-24T02:27:21;16.60;99.90
54518;DHT22;40423;53.176;6.002;2023-06-24T02:29:47;16.50;99.90
54518;DHT22;40423;53.176;6.002;2023-06-24T02:32:13;16.50;99.90
54518;DHT22;40423;53.176;6.002;2023-06-24T02:34:39;16.50;99.90
54518;DHT22;40423;53.176;6.002;2023-06-24T02:37:05;16.50;99.90
54518;DHT22;40423;53.176;6.002;2023-06-24T02:39:31;16.50;99.90
54518;DHT22;40423;53.176;6.002;2023-06-24T02:41:57;16.40;99.90
54518;DHT22;40423;53.176;6.002;2023-06-24T02:44:23;16.50;99.90
54518;DHT22;40423;53.176;6.002;2023-06-24T02:46:49;16.60;99.90
54518;DHT22;40423;53.176;6.002;2023-06-24T02:49:17;16.70;99.90
54518;DHT22;40423;53.176;6.002;2023-06-24T02:51:44;16.70;99.90
54518;DHT22;40423;53.176;6.002;2023-06-24T02:54:10;16.70;99.90
54518;DHT22;40423;53.176;6.002;2023-06-24T02:56:37;16.60;99.90
54518;DHT22;40423;53.176;6.002;2023-06-24T02:59:07;16.50;99.90
54518;DHT22;40423;53.176;6.002;2023-06-24T03:01:34;16.40;99.90
54518;DHT22;40423;53.176;6.002;2023-06-24T03:04:04;16.40;99.90
54518;DHT22;40423;53.176;6.002;2023-06-24T03:06:30;16.40;99.90
54518;DHT22;40423;53.176;6.002;2023-06-24T03:08:57;16.40;99.90
54518;DHT22;40423;53.176;6.002;2023-06-24T03:11:23;16.40;99.90
54518;DHT22;40423;53.176;6.002;2023-06-24T03:13:49;16.50;99.90
54518;DHT22;40423;53.176;6.002;2023-06-24T03:16:15;16.40;99.90
54518;DHT22;40423;53.176;6.002;2023-06-24T03:18:41;16.40;99.90
54518;DHT22;40423;53.176;6.002;2023-06-24T03:21:08;16.30;99.90
54518;DHT22;40423;53.176;6.002;2023-06-24T03:23:34;16.30;99.90
54518;DHT22;40423;53.176;6.002;2023-06-24T03:26:00;16.30;99.90
54518;DHT22;40423;53.176;6.002;2023-06-24T03:28:29;16.30;99.90
54518;DHT22;40423;53.176;6.002;2023-06-24T03:30:56;16.30;99.90
54518;DHT22;40423;53.176;6.002;2023-06-24T03:33:21;16.30;99.90
54518;DHT22;40423;53.176;6.002;2023-06-24T03:35:47;16.20;99.90
54518;DHT22;40423;53.176;6.002;2023-06-24T03:38:13;16.20;99.90
54518;DHT22;40423;53.176;6.002;2023-06-24T03:40:38;16.20;99.90
54518;DHT22;40423;53.176;6.002;2023-06-24T03:43:04;16.30;99.90
54518;DHT22;40423;53.176;6.002;2023-06-24T03:45:31;16.30;99.90
54518;DHT22;40423;53.176;6.002;2023-06-24T03:47:57;16.30;99.90
54518;DHT22;40423;53.176;6.002;2023-06-24T03:50:23;16.40;99.90
54518;DHT22;40423;53.176;6.002;2023-06-24T03:52:48;16.40;99.90
54518;DHT22;40423;53.176;6.002;2023-06-24T03:55:14;16.40;99.90
54518;DHT22;40423;53.176;6.002;2023-06-24T03:57:40;16.40;99.90
54518;DHT22;40423;53.176;6.002;2023-06-24T04:00:06;16.40;99.90
54518;DHT22;40423;53.176;6.002;2023-06-24T04:02:43;16.50;99.90
54518;DHT22;40423;53.176;6.002;2023-06-24T04:05:10;16.50;99.90
54518;DHT22;40423;53.176;6.002;2023-06-24T04:07:36;16.50;99.90
54518;DHT22;40423;53.176;6.002;2023-06-24T04:10:03;16.60;99.90
54518;DHT22;40423;53.176;6.002;2023-06-24T04:12:36;16.60;99.90
54518;DHT22;40423;53.176;6.002;2023-06-24T04:15:05;16.60;99.90
54518;DHT22;40423;53.176;6.002;2023-06-24T04:17:31;16.60;99.90
54518;DHT22;40423;53.176;6.002;2023-06-24T04:19:57;16.60;99.90
54518;DHT22;40423;53.176;6.002;2023-06-24T04:22:25;16.70;99.90
54518;DHT22;40423;53.176;6.002;2023-06-24T04:24:51;16.70;99.90
54518;DHT22;40423;53.176;6.002;2023-06-24T04:27:16;16.70;99.90
54518;DHT22;40423;53.176;6.002;2023-06-24T04:29:42;16.80;99.90
54518;DHT22;40423;53.176;6.002;2023-06-24T04:32:08;16.80;99.90
54518;DHT22;40423;53.176;6.002;2023-06-24T04:34:34;16.80;99.90
54518;DHT22;40423;53.176;6.002;2023-06-24T04:36:59;16.90;99.90
54518;DHT22;40423;53.176;6.002;2023-06-24T04:39:25;16.90;99.90
54518;DHT22;40423;53.176;6.002;2023-06-24T04:41:51;16.90;99.90
54518;DHT22;40423;53.176;6.002;2023-06-24T04:44:16;17.00;99.90
54518;DHT22;40423;53.176;6.002;2023-06-24T04:46:42;16.90;99.90
54518;DHT22;40423;53.176;6.002;2023-06-24T04:49:08;17.00;99.90
54518;DHT22;40423;53.176;6.002;2023-06-24T04:51:34;17.00;99.90
54518;DHT22;40423;53.176;6.002;2023-06-24T04:54:01;17.00;99.90
54518;DHT22;40423;53.176;6.002;2023-06-24T04:56:27;17.10;99.90
54518;DHT22;40423;53.176;6.002;2023-06-24T04:58:53;17.10;99.90
54518;DHT22;40423;53.176;6.002;2023-06-24T05:01:19;17.10;99.90
54518;DHT22;40423;53.176;6.002;2023-06-24T05:03:45;17.20;99.90
54518;DHT22;40423;53.176;6.002;2023-06-24T05:06:10;17.20;99.90
54518;DHT22;40423;53.176;6.002;2023-06-24T05:08:36;17.30;99.90
54518;DHT22;40423;53.176;6.002;2023-06-24T05:11:02;17.30;99.90
54518;DHT22;40423;53.176;6.002;2023-06-24T05:13:28;17.40;99.90
54518;DHT22;40423;53.176;6.002;2023-06-24T05:15:53;17.50;99.90
54518;DHT22;40423;53.176;6.002;2023-06-24T05:18:19;17.50;99.90
54518;DHT22;40423;53.176;6.002;2023-06-24T05:20:45;17.50;99.90
54518;DHT22;40423;53.176;6.002;2023-06-24T05:23:10;17.60;99.90
54518;DHT22;40423;53.176;6.002;2023-06-24T05:25:36;17.60;99.90
54518;DHT22;40423;53.176;6.002;2023-06-24T05:28:02;17.80;99.90
54518;DHT22;40423;53.176;6.002;2023-06-24T05:30:28;17.90;99.90
54518;DHT22;40423;53.176;6.002;2023-06-24T05:32:53;17.90;99.90
54518;DHT22;40423;53.176;6.002;2023-06-24T05:35:19;18.00;99.90
54518;DHT22;40423;53.176;6.002;2023-06-24T05:37:45;18.10;99.90
54518;DHT22;40423;53.176;6.002;2023-06-24T05:40:11;18.20;99.90
54518;DHT22;40423;53.176;6.002;2023-06-24T05:42:38;18.30;99.90
54518;DHT22;40423;53.176;6.002;2023-06-24T05:45:05;18.40;99.90
54518;DHT22;40423;53.176;6.002;2023-06-24T05:47:32;18.50;99.90
54518;DHT22;40423;53.176;6.002;2023-06-24T05:49:58;18.70;99.90
54518;DHT22;40423;53.176;6.002;2023-06-24T05:52:24;18.80;99.90
54518;DHT22;40423;53.176;6.002;2023-06-24T05:54:50;19.00;99.90
54518;DHT22;40423;53.176;6.002;2023-06-24T05:57:15;19.10;99.90
54518;DHT22;40423;53.176;6.002;2023-06-24T05:59:41;19.20;99.90
54518;DHT22;40423;53.176;6.002;2023-06-24T06:02:07;19.30;99.90
54518;DHT22;40423;53.176;6.002;2023-06-24T06:04:33;19.30;99.90
54518;DHT22;40423;53.176;6.002;2023-06-24T06:06:58;19.40;99.90
54518;DHT22;40423;53.176;6.002;2023-06-24T06:09:24;19.40;99.90
54518;DHT22;40423;53.176;6.002;2023-06-24T06:11:50;19.50;99.90
54518;DHT22;40423;53.176;6.002;2023-06-24T06:14:16;19.60;99.90
54518;DHT22;40423;53.176;6.002;2023-06-24T06:16:41;19.60;99.90
54518;DHT22;40423;53.176;6.002;2023-06-24T06:19:07;19.70;99.90
54518;DHT22;40423;53.176;6.002;2023-06-24T06:21:33;19.70;99.90
54518;DHT22;40423;53.176;6.002;2023-06-24T06:23:58;19.70;99.90
54518;DHT22;40423;53.176;6.002;2023-06-24T06:26:24;19.80;99.90
54518;DHT22;40423;53.176;6.002;2023-06-24T06:28:50;19.90;99.90
54518;DHT22;40423;53.176;6.002;2023-06-24T06:31:16;19.90;99.90
54518;DHT22;40423;53.176;6.002;2023-06-24T06:33:43;20.00;99.90
54518;DHT22;40423;53.176;6.002;2023-06-24T06:36:09;20.00;99.90
54518;DHT22;40423;53.176;6.002;2023-06-24T06:38:35;20.10;99.90
54518;DHT22;40423;53.176;6.002;2023-06-24T06:41:00;20.20;99.90
54518;DHT22;40423;53.176;6.002;2023-06-24T06:43:26;20.30;99.90
54518;DHT22;40423;53.176;6.002;2023-06-24T06:45:52;20.30;99.90
54518;DHT22;40423;53.176;6.002;2023-06-24T06:48:18;20.50;99.90
54518;DHT22;40423;53.176;6.002;2023-06-24T06:50:45;20.50;99.90
54518;DHT22;40423;53.176;6.002;2023-06-24T06:53:10;20.70;99.90
54518;DHT22;40423;53.176;6.002;2023-06-24T06:55:37;20.70;99.90
54518;DHT22;40423;53.176;6.002;2023-06-24T06:58:05;20.80;99.90
54518;DHT22;40423;53.176;6.002;2023-06-24T07:00:30;20.90;99.90
54518;DHT22;40423;53.176;6.002;2023-06-24T07:02:56;20.90;99.90
54518;DHT22;40423;53.176;6.002;2023-06-24T07:05:22;21.00;99.90
54518;DHT22;40423;53.176;6.002;2023-06-24T07:07:47;21.10;99.90
54518;DHT22;40423;53.176;6.002;2023-06-24T07:10:15;21.10;99.90
54518;DHT22;40423;53.176;6.002;2023-06-24T07:12:42;21.20;99.90
54518;DHT22;40423;53.176;6.002;2023-06-24T07:15:08;21.20;99.90
54518;DHT22;40423;53.176;6.002;2023-06-24T07:17:34;21.30;99.90
54518;DHT22;40423;53.176;6.002;2023-06-24T07:20:00;21.30;99.90
54518;DHT22;40423;53.176;6.002;2023-06-24T07:22:26;21.30;99.90
54518;DHT22;40423;53.176;6.002;2023-06-24T07:24:51;21.40;99.90
54518;DHT22;40423;53.176;6.002;2023-06-24T07:27:17;21.40;99.90
54518;DHT22;40423;53.176;6.002;2023-06-24T07:29:43;21.40;99.90
54518;DHT22;40423;53.176;6.002;2023-06-24T07:32:08;21.50;99.90
54518;DHT22;40423;53.176;6.002;2023-06-24T07:34:37;21.50;99.90
54518;DHT22;40423;53.176;6.002;2023-06-24T07:37:03;21.50;99.90
54518;DHT22;40423;53.176;6.002;2023-06-24T07:39:29;21.50;99.90
54518;DHT22;40423;53.176;6.002;2023-06-24T07:41:54;21.60;99.90
54518;DHT22;40423;53.176;6.002;2023-06-24T07:44:20;21.60;99.90
54518;DHT22;40423;53.176;6.002;2023-06-24T07:46:46;21.70;99.90
54518;DHT22;40423;53.176;6.002;2023-06-24T07:49:11;21.70;99.90
54518;DHT22;40423;53.176;6.002;2023-06-24T07:51:37;21.80;99.90
54518;DHT22;40423;53.176;6.002;2023-06-24T07:54:03;21.90;99.90
54518;DHT22;40423;53.176;6.002;2023-06-24T07:56:28;21.90;99.90
54518;DHT22;40423;53.176;6.002;2023-06-24T07:58:55;22.00;99.90
54518;DHT22;40423;53.176;6.002;2023-06-24T08:01:20;22.00;99.90
54518;DHT22;40423;53.176;6.002;2023-06-24T08:03:46;22.20;99.90
54518;DHT22;40423;53.176;6.002;2023-06-24T08:06:12;22.20;99.90
54518;DHT22;40423;53.176;6.002;2023-06-24T08:08:37;22.30;99.90
54518;DHT22;40423;53.176;6.002;2023-06-24T08:11:03;22.40;99.90
54518;DHT22;40423;53.176;6.002;2023-06-24T08:13:29;22.50;99.90
54518;DHT22;40423;53.176;6.002;2023-06-24T08:15:54;22.60;99.90
54518;DHT22;40423;53.176;6.002;2023-06-24T08:18:20;22.60;99.90
54518;DHT22;40423;53.176;6.002;2023-06-24T08:20:46;22.80;99.90
54518;DHT22;40423;53.176;6.002;2023-06-24T08:23:12;22.90;99.90
54518;DHT22;40423;53.176;6.002;2023-06-24T08:25:37;23.00;99.90
54518;DHT22;40423;53.176;6.002;2023-06-24T08:28:03;23.00;99.90
54518;DHT22;40423;53.176;6.002;2023-06-24T08:30:29;23.20;99.90
54518;DHT22;40423;53.176;6.002;2023-06-24T08:32:55;23.20;99.90
54518;DHT22;40423;53.176;6.002;2023-06-24T08:35:21;23.40;99.90
54518;DHT22;40423;53.176;6.002;2023-06-24T08:37:47;23.50;99.90
54518;DHT22;40423;53.176;6.002;2023-06-24T08:40:12;23.60;99.90
54518;DHT22;40423;53.176;6.002;2023-06-24T08:42:38;23.70;99.90
54518;DHT22;40423;53.176;6.002;2023-06-24T08:45:04;23.80;99.90
54518;DHT22;40423;53.176;6.002;2023-06-24T08:47:30;23.90;99.90
54518;DHT22;40423;53.176;6.002;2023-06-24T08:50:06;23.90;99.90
54518;DHT22;40423;53.176;6.002;2023-06-24T08:52:36;24.10;99.90
54518;DHT22;40423;53.176;6.002;2023-06-24T08:55:04;24.10;99.90
54518;DHT22;40423;53.176;6.002;2023-06-24T08:57:30;24.20;99.90
54518;DHT22;40423;53.176;6.002;2023-06-24T08:59:55;24.40;99.90
54518;DHT22;40423;53.176;6.002;2023-06-24T09:02:22;24.50;99.90
54518;DHT22;40423;53.176;6.002;2023-06-24T09:04:48;24.30;99.90
54518;DHT22;40423;53.176;6.002;2023-06-24T09:07:26;24.30;99.90
54518;DHT22;40423;53.176;6.002;2023-06-24T09:09:53;24.30;99.90
54518;DHT22;40423;53.176;6.002;2023-06-24T09:12:19;24.30;99.90
54518;DHT22;40423;53.176;6.002;2023-06-24T09:14:51;24.40;99.90
54518;DHT22;40423;53.176;6.002;2023-06-24T09:17:17;24.50;99.90
54518;DHT22;40423;53.176;6.002;2023-06-24T09:19:43;24.70;99.80
54518;DHT22;40423;53.176;6.002;2023-06-24T09:22:09;24.90;99.70
54518;DHT22;40423;53.176;6.002;2023-06-24T09:24:44;25.10;99.50
54518;DHT22;40423;53.176;6.002;2023-06-24T09:27:14;25.30;99.40
54518;DHT22;40423;53.176;6.002;2023-06-24T09:29:41;25.50;99.30
54518;DHT22;40423;53.176;6.002;2023-06-24T09:32:07;25.60;98.70
54518;DHT22;40423;53.176;6.002;2023-06-24T09:34:34;25.70;97.90
54518;DHT22;40423;53.176;6.002;2023-06-24T09:37:00;25.70;97.40
54518;DHT22;40423;53.176;6.002;2023-06-24T09:39:27;25.70;97.00
54518;DHT22;40423;53.176;6.002;2023-06-24T09:42:01;25.90;97.20
54518;DHT22;40423;53.176;6.002;2023-06-24T09:44:28;26.10;97.00
54518;DHT22;40423;53.176;6.002;2023-06-24T09:46:54;26.20;96.70
54518;DHT22;40423;53.176;6.002;2023-06-24T09:49:21;26.30;96.90
54518;DHT22;40423;53.176;6.002;2023-06-24T09:51:55;26.40;96.20
54518;DHT22;40423;53.176;6.002;2023-06-24T09:54:21;26.50;96.00
54518;DHT22;40423;53.176;6.002;2023-06-24T09:56:50;26.40;95.60
54518;DHT22;40423;53.176;6.002;2023-06-24T09:59:18;26.40;95.20
54518;DHT22;40423;53.176;6.002;2023-06-24T10:01:52;26.50;95.10
54518;DHT22;40423;53.176;6.002;2023-06-24T10:04:20;26.60;95.00
54518;DHT22;40423;53.176;6.002;2023-06-24T10:06:47;26.70;94.60
54518;DHT22;40423;53.176;6.002;2023-06-24T10:09:14;26.80;94.60
54518;DHT22;40423;53.176;6.002;2023-06-24T10:11:43;26.70;93.50
54518;DHT22;40423;53.176;6.002;2023-06-24T10:14:09;26.80;94.30
54518;DHT22;40423;53.176;6.002;2023-06-24T10:16:35;27.00;94.40
54518;DHT22;40423;53.176;6.002;2023-06-24T10:19:03;27.10;94.20
54518;DHT22;40423;53.176;6.002;2023-06-24T10:21:50;27.30;94.10
54518;DHT22;40423;53.176;6.002;2023-06-24T10:24:29;27.20;93.20
54518;DHT22;40423;53.176;6.002;2023-06-24T10:27:01;27.30;93.00
54518;DHT22;40423;53.176;6.002;2023-06-24T10:29:37;27.30;93.80
54518;DHT22;40423;53.176;6.002;2023-06-24T10:32:10;27.30;93.50
54518;DHT22;40423;53.176;6.002;2023-06-24T10:34:55;27.40;93.50
54518;DHT22;40423;53.176;6.002;2023-06-24T10:37:23;27.50;92.90
54518;DHT22;40423;53.176;6.002;2023-06-24T10:47:40;27.70;91.80
54518;DHT22;40423;53.176;6.002;2023-06-24T10:50:07;27.90;91.60
54518;DHT22;40423;53.176;6.002;2023-06-24T10:52:38;28.10;91.70
54518;DHT22;40423;53.176;6.002;2023-06-24T10:55:04;28.10;91.30
54518;DHT22;40423;53.176;6.002;2023-06-24T10:57:30;28.20;91.40
54518;DHT22;40423;53.176;6.002;2023-06-24T10:59:57;28.10;91.40
54518;DHT22;40423;53.176;6.002;2023-06-24T11:02:26;28.10;91.10
54518;DHT22;40423;53.176;6.002;2023-06-24T11:07:21;27.70;91.60
54518;DHT22;40423;53.176;6.002;2023-06-24T11:12:32;27.70;91.80
54518;DHT22;40423;53.176;6.002;2023-06-24T11:14:59;27.90;91.30
54518;DHT22;40423;53.176;6.002;2023-06-24T11:17:26;27.70;90.70
54518;DHT22;40423;53.176;6.002;2023-06-24T11:19:56;27.50;90.30
54518;DHT22;40423;53.176;6.002;2023-06-24T11:22:23;27.50;89.90
54518;DHT22;40423;53.176;6.002;2023-06-24T11:24:49;27.40;88.60
54518;DHT22;40423;53.176;6.002;2023-06-24T11:27:15;27.40;88.80
54518;DHT22;40423;53.176;6.002;2023-06-24T11:29:41;27.50;90.10
54518;DHT22;40423;53.176;6.002;2023-06-24T11:32:08;27.60;90.30
54518;DHT22;40423;53.176;6.002;2023-06-24T11:34:38;27.60;90.30
54518;DHT22;40423;53.176;6.002;2023-06-24T11:37:17;27.80;90.10
54518;DHT22;40423;53.176;6.002;2023-06-24T11:39:43;27.80;90.10
54518;DHT22;40423;53.176;6.002;2023-06-24T11:42:10;27.60;89.90
54518;DHT22;40423;53.176;6.002;2023-06-24T11:44:41;27.80;90.50
54518;DHT22;40423;53.176;6.002;2023-06-24T11:47:09;27.90;90.40
54518;DHT22;40423;53.176;6.002;2023-06-24T11:49:55;28.00;90.40
54518;DHT22;40423;53.176;6.002;2023-06-24T11:52:41;27.50;88.30
54518;DHT22;40423;53.176;6.002;2023-06-24T11:55:20;27.50;90.50
54518;DHT22;40423;53.176;6.002;2023-06-24T11:58:00;27.70;90.50
54518;DHT22;40423;53.176;6.002;2023-06-24T12:00:33;27.70;89.70
54518;DHT22;40423;53.176;6.002;2023-06-24T12:03:02;27.60;89.40
54518;DHT22;40423;53.176;6.002;2023-06-24T12:05:29;27.80;89.70
54518;DHT22;40423;53.176;6.002;2023-06-24T12:08:03;27.70;90.00
54518;DHT22;40423;53.176;6.002;2023-06-24T12:10:30;27.40;89.00
54518;DHT22;40423;53.176;6.002;2023-06-24T12:12:59;27.10;90.20
54518;DHT22;40423;53.176;6.002;2023-06-24T12:15:25;26.90;90.40
54518;DHT22;40423;53.176;6.002;2023-06-24T12:17:51;27.20;90.50
54518;DHT22;40423;53.176;6.002;2023-06-24T12:20:17;27.40;90.50
54518;DHT22;40423;53.176;6.002;2023-06-24T12:22:45;27.60;90.40
54518;DHT22;40423;53.176;6.002;2023-06-24T12:25:11;27.30;90.20
54518;DHT22;40423;53.176;6.002;2023-06-24T12:27:37;27.20;90.70
54518;DHT22;40423;53.176;6.002;2023-06-24T12:30:04;26.80;89.80
54518;DHT22;40423;53.176;6.002;2023-06-24T12:32:30;26.80;90.80
54518;DHT22;40423;53.176;6.002;2023-06-24T12:34:55;27.00;90.80
54518;DHT22;40423;53.176;6.002;2023-06-24T12:37:22;27.30;90.90
54518;DHT22;40423;53.176;6.002;2023-06-24T12:39:48;27.60;88.10
54518;DHT22;40423;53.176;6.002;2023-06-24T12:42:16;27.60;90.00
54518;DHT22;40423;53.176;6.002;2023-06-24T12:44:42;27.80;88.90
54518;DHT22;40423;53.176;6.002;2023-06-24T12:47:07;28.00;88.70
54518;DHT22;40423;53.176;6.002;2023-06-24T12:49:33;28.20;88.10
54518;DHT22;40423;53.176;6.002;2023-06-24T12:52:01;28.40;87.40
54518;DHT22;40423;53.176;6.002;2023-06-24T12:54:26;28.50;86.30
54518;DHT22;40423;53.176;6.002;2023-06-24T12:56:52;28.00;84.50
54518;DHT22;40423;53.176;6.002;2023-06-24T12:59:18;28.10;87.40
54518;DHT22;40423;53.176;6.002;2023-06-24T13:01:43;28.40;87.30
54518;DHT22;40423;53.176;6.002;2023-06-24T13:04:11;28.50;86.40
54518;DHT22;40423;53.176;6.002;2023-06-24T13:06:37;28.70;85.50
54518;DHT22;40423;53.176;6.002;2023-06-24T13:09:02;28.50;85.00
54518;DHT22;40423;53.176;6.002;2023-06-24T13:11:28;28.80;85.90
54518;DHT22;40423;53.176;6.002;2023-06-24T13:13:54;29.10;85.40
54518;DHT22;40423;53.176;6.002;2023-06-24T13:16:20;29.30;83.00
54518;DHT22;40423;53.176;6.002;2023-06-24T13:18:46;29.40;83.70
54518;DHT22;40423;53.176;6.002;2023-06-24T13:21:12;29.30;83.50
54518;DHT22;40423;53.176;6.002;2023-06-24T13:23:39;29.30;81.80
54518;DHT22;40423;53.176;6.002;2023-06-24T13:26:08;29.30;82.70
54518;DHT22;40423;53.176;6.002;2023-06-24T13:28:34;29.30;82.40
54518;DHT22;40423;53.176;6.002;2023-06-24T13:30:59;29.20;82.90
54518;DHT22;40423;53.176;6.002;2023-06-24T13:33:25;29.00;82.80
54518;DHT22;40423;53.176;6.002;2023-06-24T13:35:52;29.30;82.00
54518;DHT22;40423;53.176;6.002;2023-06-24T13:38:18;29.00;82.10
54518;DHT22;40423;53.176;6.002;2023-06-24T13:40:44;28.90;80.80
54518;DHT22;40423;53.176;6.002;2023-06-24T13:43:09;29.00;80.20
54518;DHT22;40423;53.176;6.002;2023-06-24T13:45:35;28.80;79.80
54518;DHT22;40423;53.176;6.002;2023-06-24T13:48:01;28.80;81.30
54518;DHT22;40423;53.176;6.002;2023-06-24T13:50:27;29.00;81.60
54518;DHT22;40423;53.176;6.002;2023-06-24T13:52:55;29.10;81.70
54518;DHT22;40423;53.176;6.002;2023-06-24T13:55:21;29.40;80.90
54518;DHT22;40423;53.176;6.002;2023-06-24T13:57:47;29.70;80.50
54518;DHT22;40423;53.176;6.002;2023-06-24T14:00:13;30.10;79.80
54518;DHT22;40423;53.176;6.002;2023-06-24T14:02:40;29.60;79.20
54518;DHT22;40423;53.176;6.002;2023-06-24T14:05:06;29.20;77.20
54518;DHT22;40423;53.176;6.002;2023-06-24T14:07:33;29.00;79.00
54518;DHT22;40423;53.176;6.002;2023-06-24T14:09:58;29.20;79.80
54518;DHT22;40423;53.176;6.002;2023-06-24T14:12:24;29.60;79.60
54518;DHT22;40423;53.176;6.002;2023-06-24T14:14:51;30.00;78.50
54518;DHT22;40423;53.176;6.002;2023-06-24T14:17:16;30.00;77.50
54518;DHT22;40423;53.176;6.002;2023-06-24T14:19:42;30.10;78.20
54518;DHT22;40423;53.176;6.002;2023-06-24T14:22:08;30.20;76.40
54518;DHT22;40423;53.176;6.002;2023-06-24T14:24:35;30.40;77.20
54518;DHT22;40423;53.176;6.002;2023-06-24T14:27:01;30.60;78.40
54518;DHT22;40423;53.176;6.002;2023-06-24T14:29:27;30.80;78.40
54518;DHT22;40423;53.176;6.002;2023-06-24T14:31:52;31.00;78.00
54518;DHT22;40423;53.176;6.002;2023-06-24T14:34:18;30.60;75.60
54518;DHT22;40423;53.176;6.002;2023-06-24T14:36:44;30.30;77.40
54518;DHT22;40423;53.176;6.002;2023-06-24T14:39:14;30.30;77.80
54518;DHT22;40423;53.176;6.002;2023-06-24T14:41:41;30.10;78.30
54518;DHT22;40423;53.176;6.002;2023-06-24T14:44:07;30.00;78.70
54518;DHT22;40423;53.176;6.002;2023-06-24T14:46:32;30.00;79.20
54518;DHT22;40423;53.176;6.002;2023-06-24T14:48:58;30.00;78.50
54518;DHT22;40423;53.176;6.002;2023-06-24T14:51:24;29.60;76.90
54518;DHT22;40423;53.176;6.002;2023-06-24T14:53:50;29.60;78.50
54518;DHT22;40423;53.176;6.002;2023-06-24T14:56:16;29.40;78.20
54518;DHT22;40423;53.176;6.002;2023-06-24T14:58:41;29.00;78.20
54518;DHT22;40423;53.176;6.002;2023-06-24T15:01:07;29.10;79.50
54518;DHT22;40423;53.176;6.002;2023-06-24T15:03:33;29.00;77.60
54518;DHT22;40423;53.176;6.002;2023-06-24T15:05:58;28.30;79.80
54518;DHT22;40423;53.176;6.002;2023-06-24T15:08:24;28.20;80.30
54518;DHT22;40423;53.176;6.002;2023-06-24T15:10:52;28.10;80.20
54518;DHT22;40423;53.176;6.002;2023-06-24T15:13:18;27.80;80.50
54518;DHT22;40423;53.176;6.002;2023-06-24T15:15:44;27.70;80.70
54518;DHT22;40423;53.176;6.002;2023-06-24T15:18:09;27.70;81.40
54518;DHT22;40423;53.176;6.002;2023-06-24T15:20:35;27.80;81.50
54518;DHT22;40423;53.176;6.002;2023-06-24T15:23:01;27.50;81.50
54518;DHT22;40423;53.176;6.002;2023-06-24T15:25:26;27.60;82.10
54518;DHT22;40423;53.176;6.002;2023-06-24T15:27:53;27.60;82.40
54518;DHT22;40423;53.176;6.002;2023-06-24T15:30:19;27.60;82.80
54518;DHT22;40423;53.176;6.002;2023-06-24T15:32:44;27.50;83.00
54518;DHT22;40423;53.176;6.002;2023-06-24T15:35:12;27.30;83.10
54518;DHT22;40423;53.176;6.002;2023-06-24T15:37:38;27.20;82.90
54518;DHT22;40423;53.176;6.002;2023-06-24T15:40:04;27.20;83.50
54518;DHT22;40423;53.176;6.002;2023-06-24T15:42:30;26.90;83.60
54518;DHT22;40423;53.176;6.002;2023-06-24T15:44:55;26.90;84.30
54518;DHT22;40423;53.176;6.002;2023-06-24T15:47:21;27.00;84.10
54518;DHT22;40423;53.176;6.002;2023-06-24T15:49:47;27.10;84.80
54518;DHT22;40423;53.176;6.002;2023-06-24T15:52:13;27.20;85.00
54518;DHT22;40423;53.176;6.002;2023-06-24T15:54:39;27.30;84.70